createdAt,value
2022-12-09T00:01:08.208Z,17.30
2022-12-09T00:03:35.457Z,16.00
2022-12-09T00:06:22.210Z,17.55
2022-12-09T00:08:49.560Z,18.42
2022-12-09T00:11:17.046Z,17.27
2022-12-09T00:13:43.902Z,16.73
2022-12-09T00:16:12.745Z,16.48
2022-12-09T00:18:40.085Z,15.13
2022-12-09T00:21:33.711Z,15.77
2022-12-09T00:24:07.712Z,15.25
2022-12-09T00:26:34.682Z,13.05
2022-12-09T00:29:02.189Z,13.75
2022-12-09T00:31:32.583Z,14.30
2022-12-09T00:34:01.546Z,17.27
2022-12-09T00:36:28.978Z,16.50
2022-12-09T00:38:56.921Z,15.90
2022-12-09T00:41:23.964Z,13.77
2022-12-09T00:43:50.690Z,15.52
2022-12-09T00:46:17.697Z,15.25
2022-12-09T00:48:46.022Z,15.38
2022-12-09T00:51:18.697Z,14.73
2022-12-09T00:53:45.913Z,15.02
2022-12-09T00:56:12.509Z,14.30
2022-12-09T00:58:39.380Z,15.63
2022-12-09T01:01:06.075Z,16.17
2022-12-09T01:03:33.329Z,15.75
2022-12-09T01:06:00.685Z,16.50
2022-12-09T01:08:27.349Z,17.05
2022-12-09T01:10:54.138Z,17.40
2022-12-09T01:13:21.042Z,15.38
2022-12-09T01:15:47.695Z,19.55
2022-12-09T01:18:14.515Z,20.08
2022-12-09T01:20:41.569Z,18.88
2022-12-09T01:23:08.548Z,18.40
2022-12-09T01:25:35.390Z,17.80
2022-12-09T01:28:02.210Z,17.35
2022-12-09T01:30:28.965Z,16.63
2022-12-09T01:32:55.697Z,15.90
2022-12-09T01:35:22.365Z,15.05
2022-12-09T01:37:49.022Z,15.70
2022-12-09T01:40:17.185Z,16.65
2022-12-09T01:42:45.037Z,21.83
2022-12-09T01:45:21.506Z,19.93
2022-12-09T01:47:52.836Z,19.65
2022-12-09T01:50:19.589Z,17.98
2022-12-09T01:52:46.797Z,20.65
2022-12-09T01:55:14.030Z,19.23
2022-12-09T01:57:41.007Z,18.13
2022-12-09T02:00:08.434Z,18.30
2022-12-09T02:02:37.353Z,18.57
2022-12-09T02:05:05.134Z,18.92
2022-12-09T02:07:32.238Z,17.63
2022-12-09T02:09:59.272Z,18.55
2022-12-09T02:12:40.510Z,19.27
2022-12-09T02:15:12.367Z,18.05
2022-12-09T02:18:05.789Z,16.83
2022-12-09T02:20:39.773Z,19.85
2022-12-09T02:23:12.796Z,20.10
2022-12-09T02:25:48.944Z,18.15
2022-12-09T02:28:30.919Z,20.60
2022-12-09T02:31:28.937Z,17.90
2022-12-09T02:36:47.859Z,18.23
2022-12-09T02:39:15.390Z,19.67
2022-12-09T02:41:43.974Z,19.70
2022-12-09T02:44:16.042Z,18.58
2022-12-09T02:46:43.789Z,20.55
2022-12-09T02:49:10.972Z,19.50
2022-12-09T02:51:42.465Z,20.48
2022-12-09T02:54:13.027Z,20.27
2022-12-09T02:56:42.305Z,19.00
2022-12-09T02:59:09.721Z,19.25
2022-12-09T03:02:03.439Z,19.58
2022-12-09T03:04:30.902Z,18.67
2022-12-09T03:07:25.408Z,18.92
2022-12-09T03:10:09.409Z,19.92
2022-12-09T03:12:39.089Z,19.17
2022-12-09T03:15:06.647Z,18.20
2022-12-09T03:17:37.190Z,18.47
2022-12-09T03:20:08.535Z,18.02
2022-12-09T03:22:36.273Z,19.30
2022-12-09T03:25:14.063Z,17.98
2022-12-09T03:27:43.731Z,16.70
2022-12-09T03:30:11.273Z,17.40
2022-12-09T03:32:39.235Z,19.45
2022-12-09T03:35:11.594Z,19.20
2022-12-09T03:37:40.064Z,19.15
2022-12-09T03:42:46.578Z,17.83
2022-12-09T03:45:15.977Z,17.90
2022-12-09T03:47:42.633Z,19.05
2022-12-09T03:50:10.442Z,17.80
2022-12-09T03:52:55.259Z,18.58
2022-12-09T03:55:31.620Z,18.42
2022-12-09T03:58:00.776Z,19.42
2022-12-09T04:00:27.640Z,19.02
2022-12-09T04:02:54.559Z,18.15
2022-12-09T04:05:21.626Z,19.00
2022-12-09T04:07:48.650Z,16.17
2022-12-09T04:10:15.545Z,17.50
2022-12-09T04:12:42.312Z,19.52
2022-12-09T04:15:10.328Z,20.25
2022-12-09T04:17:37.094Z,18.88
2022-12-09T04:20:04.678Z,18.50
2022-12-09T04:22:31.853Z,17.67
2022-12-09T04:24:58.474Z,17.08
2022-12-09T04:27:25.254Z,18.73
2022-12-09T04:29:51.962Z,18.63
2022-12-09T04:32:18.685Z,18.42
2022-12-09T04:34:45.425Z,17.83
2022-12-09T04:37:13.141Z,17.40
2022-12-09T04:39:41.856Z,18.35
2022-12-09T04:42:08.888Z,18.90
2022-12-09T04:44:35.744Z,19.02
2022-12-09T04:47:02.687Z,18.75
2022-12-09T04:49:29.598Z,18.23
2022-12-09T04:51:56.292Z,18.80
2022-12-09T04:54:23.045Z,17.20
2022-12-09T04:56:50.323Z,16.42
2022-12-09T04:59:16.986Z,16.42
2022-12-09T05:01:43.672Z,17.88
2022-12-09T05:04:10.677Z,18.83
2022-12-09T05:06:38.031Z,18.33
2022-12-09T05:09:05.160Z,17.65
2022-12-09T05:11:32.195Z,17.05
2022-12-09T05:13:59.150Z,17.00
2022-12-09T05:16:26.349Z,17.33
2022-12-09T05:18:53.245Z,16.85
2022-12-09T05:21:21.085Z,18.05
2022-12-09T05:23:48.561Z,16.50
2022-12-09T05:26:17.925Z,14.87
2022-12-09T05:28:45.056Z,17.58
2022-12-09T05:31:15.558Z,16.58
2022-12-09T05:33:43.318Z,16.55
2022-12-09T05:36:11.790Z,16.83
2022-12-09T05:41:06.603Z,14.93
2022-12-09T05:43:34.041Z,15.98
2022-12-09T05:46:01.898Z,18.88
2022-12-09T05:48:29.025Z,16.10
2022-12-09T05:51:01.367Z,15.80
2022-12-09T05:53:28.578Z,17.52
2022-12-09T05:55:55.606Z,16.08
2022-12-09T05:58:22.381Z,16.50
2022-12-09T06:00:49.110Z,15.90
2022-12-09T06:03:16.228Z,15.73
2022-12-09T06:05:43.375Z,14.23
2022-12-09T06:08:10.609Z,16.52
2022-12-09T06:10:41.368Z,16.38
2022-12-09T06:13:08.627Z,16.67
2022-12-09T06:15:35.964Z,15.77
2022-12-09T06:18:03.174Z,15.68
2022-12-09T06:20:30.549Z,16.05
2022-12-09T06:22:57.609Z,16.60
2022-12-09T06:25:24.726Z,14.77
2022-12-09T06:27:52.098Z,14.30
2022-12-09T06:30:19.236Z,14.52
2022-12-09T06:32:46.715Z,14.55
2022-12-09T06:35:13.966Z,13.23
2022-12-09T06:37:41.649Z,15.20
2022-12-09T06:40:09.305Z,16.42
2022-12-09T06:42:36.315Z,17.17
2022-12-09T06:45:04.162Z,15.75
2022-12-09T06:47:31.271Z,14.93
2022-12-09T06:50:06.487Z,15.57
2022-12-09T06:52:34.623Z,15.73
2022-12-09T06:55:02.203Z,15.48
2022-12-09T06:57:29.450Z,14.20
2022-12-09T06:59:56.321Z,14.63
2022-12-09T07:02:23.321Z,16.38
2022-12-09T07:04:57.305Z,14.48
2022-12-09T07:07:24.644Z,15.57
2022-12-09T07:09:51.407Z,15.60
2022-12-09T07:12:19.061Z,13.98
2022-12-09T07:14:45.758Z,13.75
2022-12-09T07:17:17.599Z,14.63
2022-12-09T07:19:45.068Z,13.00
2022-12-09T07:22:12.723Z,13.80
2022-12-09T07:24:39.995Z,15.50
2022-12-09T07:27:11.885Z,14.13
2022-12-09T07:29:41.342Z,13.10
2022-12-09T07:32:11.699Z,14.52
2022-12-09T07:34:38.903Z,16.10
2022-12-09T07:37:05.855Z,16.83
2022-12-09T07:39:32.468Z,15.60
2022-12-09T07:41:59.527Z,15.52
2022-12-09T07:44:28.423Z,16.08
2022-12-09T07:46:55.877Z,15.93
2022-12-09T07:49:23.253Z,14.40
2022-12-09T07:51:50.798Z,15.93
2022-12-09T07:54:19.132Z,15.82
2022-12-09T07:56:46.225Z,16.45
2022-12-09T07:59:14.505Z,15.52
2022-12-09T08:01:41.500Z,13.68
2022-12-09T08:04:08.537Z,15.00
2022-12-09T08:06:36.230Z,14.82
2022-12-09T08:09:07.162Z,16.67
2022-12-09T08:11:34.938Z,18.30
2022-12-09T08:14:10.490Z,16.60
2022-12-09T08:16:39.288Z,15.68
2022-12-09T08:19:06.237Z,15.95
2022-12-09T08:21:33.736Z,15.60
2022-12-09T08:24:02.287Z,15.87
2022-12-09T08:26:30.988Z,15.55
2022-12-09T08:28:58.222Z,15.40
2022-12-09T08:31:26.631Z,17.73
2022-12-09T08:36:24.091Z,17.63
2022-12-09T08:38:51.124Z,18.95
2022-12-09T08:41:35.436Z,16.42
2022-12-09T08:44:02.889Z,15.75
2022-12-09T08:46:30.032Z,15.75
2022-12-09T08:48:57.397Z,15.32
2022-12-09T08:51:24.885Z,14.97
2022-12-09T08:53:51.776Z,15.23
2022-12-09T08:56:18.918Z,15.43
2022-12-09T08:58:47.292Z,14.63
2022-12-09T09:03:42.033Z,14.85
2022-12-09T09:06:10.878Z,14.82
2022-12-09T09:08:38.486Z,15.07
2022-12-09T09:11:11.547Z,15.18
2022-12-09T09:13:42.888Z,13.27
2022-12-09T09:16:17.590Z,14.65
2022-12-09T09:18:44.929Z,15.57
2022-12-09T09:21:13.311Z,14.38
2022-12-09T09:23:40.791Z,14.60
2022-12-09T09:26:12.437Z,15.02
2022-12-09T09:28:39.896Z,14.40
2022-12-09T09:31:08.331Z,16.23
2022-12-09T09:36:09.731Z,12.63
2022-12-09T09:38:37.500Z,14.68
2022-12-09T09:41:17.368Z,13.85
2022-12-09T09:43:44.607Z,13.77
2022-12-09T09:46:19.800Z,14.45
2022-12-09T09:48:47.131Z,14.48
2022-12-09T09:51:17.754Z,14.63
2022-12-09T09:53:44.996Z,14.30
2022-12-09T09:56:28.488Z,13.23
2022-12-09T09:59:11.862Z,15.75
2022-12-09T10:01:39.074Z,14.63
2022-12-09T10:04:31.476Z,15.05
2022-12-09T10:07:22.224Z,15.05
2022-12-09T10:10:03.125Z,14.05
2022-12-09T10:13:16.050Z,13.80
2022-12-09T10:15:57.778Z,13.65
2022-12-09T10:18:36.160Z,14.73
2022-12-09T10:21:03.298Z,14.18
2022-12-09T10:23:32.031Z,14.57
2022-12-09T10:26:04.095Z,14.73
2022-12-09T10:28:35.266Z,13.88
2022-12-09T10:31:03.357Z,13.80
2022-12-09T10:33:34.376Z,14.27
2022-12-09T10:36:02.140Z,14.13
2022-12-09T10:38:30.331Z,14.00
2022-12-09T10:41:03.050Z,15.27
2022-12-09T10:43:38.967Z,16.35
2022-12-09T10:46:20.462Z,16.02
2022-12-09T10:48:48.630Z,15.32
2022-12-09T10:51:36.525Z,14.93
2022-12-09T10:54:05.737Z,15.45
2022-12-09T10:56:36.249Z,16.27
2022-12-09T10:59:13.728Z,16.77
2022-12-09T11:01:59.553Z,16.52
2022-12-09T11:04:26.854Z,17.75
2022-12-09T11:07:00.795Z,16.05
2022-12-09T11:09:29.753Z,15.65
2022-12-09T11:11:56.825Z,16.42
2022-12-09T11:14:34.205Z,14.90
2022-12-09T11:17:17.058Z,15.55
2022-12-09T11:19:47.249Z,15.60
2022-12-09T11:22:20.604Z,16.73
2022-12-09T11:24:47.409Z,16.05
2022-12-09T11:27:34.078Z,17.17
2022-12-09T11:30:12.472Z,15.00
2022-12-09T11:32:54.737Z,15.05
2022-12-09T11:35:27.831Z,15.35
2022-12-09T11:37:54.821Z,15.77
2022-12-09T11:40:23.804Z,15.27
2022-12-09T11:42:54.315Z,16.45
2022-12-09T11:45:30.949Z,15.20
2022-12-09T11:48:29.734Z,16.63
2022-12-09T11:51:00.200Z,15.98
2022-12-09T11:53:29.730Z,15.23
2022-12-09T11:56:09.603Z,15.32
2022-12-09T11:58:41.770Z,15.27
2022-12-09T12:01:13.460Z,15.95
2022-12-09T12:03:44.982Z,16.13
2022-12-09T12:06:24.355Z,16.30
2022-12-09T12:09:03.207Z,14.88
2022-12-09T12:11:36.954Z,15.13
2022-12-09T12:14:16.861Z,15.35
2022-12-09T12:16:55.461Z,16.17
2022-12-09T12:19:28.119Z,16.88
2022-12-09T12:22:31.619Z,14.85
2022-12-09T12:25:22.984Z,15.13
2022-12-09T12:28:13.412Z,15.82
2022-12-09T12:30:45.011Z,16.05
2022-12-09T12:36:25.700Z,16.40
2022-12-09T12:39:26.316Z,14.90
2022-12-09T12:42:05.095Z,16.73
2022-12-09T12:45:02.482Z,14.73
2022-12-09T12:47:55.135Z,15.05
2022-12-09T12:50:38.860Z,13.93
2022-12-09T12:53:23.710Z,15.18
2022-12-09T12:56:00.440Z,15.50
2022-12-09T12:58:29.719Z,14.88
2022-12-09T13:01:13.554Z,15.35
2022-12-09T13:04:02.150Z,15.38
2022-12-09T13:06:35.024Z,14.25
2022-12-09T13:09:06.634Z,15.18
2022-12-09T13:11:43.338Z,14.60
2022-12-09T13:14:21.213Z,13.82
2022-12-09T13:16:48.217Z,14.50
2022-12-09T13:19:43.942Z,15.05
2022-12-09T13:22:19.697Z,17.00
2022-12-09T13:25:01.839Z,15.15
2022-12-09T13:27:39.811Z,14.98
2022-12-09T13:30:15.425Z,16.15
2022-12-09T13:33:19.586Z,16.60
2022-12-09T13:36:07.192Z,15.60
2022-12-09T13:38:39.940Z,15.80
2022-12-09T13:41:31.492Z,16.42
2022-12-09T13:44:11.342Z,15.98
2022-12-09T13:46:38.082Z,16.00
2022-12-09T13:49:25.996Z,15.77
2022-12-09T13:51:54.446Z,15.52
2022-12-09T13:57:21.239Z,13.52
2022-12-09T13:59:50.603Z,13.10
2022-12-09T14:02:20.202Z,14.38
2022-12-09T14:05:08.260Z,13.15
2022-12-09T14:07:46.019Z,14.18
2022-12-09T14:10:43.138Z,13.13
2022-12-09T14:13:24.870Z,13.27
2022-12-09T14:16:10.241Z,12.95
2022-12-09T14:18:39.925Z,13.85
2022-12-09T14:21:19.161Z,13.43
2022-12-09T14:24:07.455Z,12.70
2022-12-09T14:29:51.710Z,12.57
2022-12-09T14:32:37.578Z,13.35
2022-12-09T14:35:19.569Z,11.98
2022-12-09T14:38:07.045Z,12.93
2022-12-09T14:40:42.754Z,13.40
2022-12-09T14:43:33.707Z,12.52
2022-12-09T14:46:05.916Z,12.88
2022-12-09T14:48:38.458Z,12.73
2022-12-09T14:51:10.540Z,12.82
2022-12-09T14:53:37.693Z,13.65
2022-12-09T14:56:05.154Z,14.55
2022-12-09T14:58:31.824Z,14.02
2022-12-09T15:01:02.921Z,12.93
2022-12-09T15:03:34.209Z,14.25
2022-12-09T15:06:04.926Z,15.82
2022-12-09T15:08:36.905Z,16.55
2022-12-09T15:11:16.116Z,15.73
2022-12-09T15:13:45.442Z,16.80
2022-12-09T15:16:15.336Z,16.83
2022-12-09T15:18:42.750Z,17.27
2022-12-09T15:21:09.851Z,18.88
2022-12-09T15:23:39.816Z,17.15
2022-12-09T15:26:26.561Z,19.98
2022-12-09T15:28:56.016Z,18.55
2022-12-09T15:31:26.633Z,17.13
2022-12-09T15:33:56.067Z,18.95
2022-12-09T15:36:26.575Z,17.92
2022-12-09T15:39:07.438Z,16.52
2022-12-09T15:42:02.792Z,14.93
2022-12-09T15:44:36.382Z,14.07
2022-12-09T15:47:10.153Z,12.63
2022-12-09T15:49:42.295Z,12.32
2022-12-09T15:52:08.889Z,12.27
2022-12-09T15:54:39.190Z,14.95
2022-12-09T15:57:08.455Z,15.70
2022-12-09T15:59:43.227Z,16.77
2022-12-09T16:02:22.109Z,14.07
2022-12-09T16:04:50.359Z,15.30
2022-12-09T16:07:19.476Z,14.73
2022-12-09T16:10:10.233Z,14.68
2022-12-09T16:12:37.890Z,14.93
2022-12-09T16:15:06.410Z,15.38
2022-12-09T16:17:38.807Z,16.58
2022-12-09T16:20:22.210Z,15.93
2022-12-09T16:22:49.825Z,18.25
2022-12-09T16:25:22.282Z,18.55
2022-12-09T16:27:57.555Z,17.17
2022-12-09T16:30:26.662Z,15.57
2022-12-09T16:33:00.685Z,17.70
2022-12-09T16:35:57.798Z,17.50
2022-12-09T16:38:24.755Z,16.53
2022-12-09T16:40:54.629Z,17.48
2022-12-09T16:43:23.473Z,16.45
2022-12-09T16:45:58.738Z,18.02
2022-12-09T16:48:27.565Z,18.05
2022-12-09T16:51:03.965Z,16.92
2022-12-09T16:53:33.701Z,18.48
2022-12-09T16:56:01.752Z,18.08
2022-12-09T16:58:30.240Z,17.02
2022-12-09T17:03:34.810Z,15.18
2022-12-09T17:06:01.470Z,17.10
2022-12-09T17:08:28.131Z,22.42
2022-12-09T17:10:54.729Z,19.17
2022-12-09T17:13:21.304Z,18.17
2022-12-09T17:15:47.956Z,16.60
2022-12-09T17:18:14.575Z,18.98
2022-12-09T17:20:41.121Z,21.35
2022-12-09T17:23:07.685Z,20.70
2022-12-09T17:25:34.229Z,20.00
2022-12-09T17:28:05.908Z,21.77
2022-12-09T17:30:37.675Z,22.67
2022-12-09T17:33:04.214Z,21.35
2022-12-09T17:35:33.796Z,20.02
2022-12-09T17:38:02.241Z,21.58
2022-12-09T17:42:55.230Z,21.33
2022-12-09T17:45:21.822Z,21.05
2022-12-09T17:47:48.893Z,22.35
2022-12-09T17:50:15.495Z,20.73
2022-12-09T17:52:43.071Z,21.02
2022-12-09T17:55:10.213Z,21.38
2022-12-09T17:57:36.817Z,19.85
2022-12-09T18:00:05.984Z,25.83
2022-12-09T18:02:32.857Z,22.75
2022-12-09T18:04:59.453Z,20.48
2022-12-09T18:07:25.995Z,21.33
2022-12-09T18:09:54.657Z,23.45
2022-12-09T18:12:21.747Z,25.25
2022-12-09T18:14:48.355Z,26.85
2022-12-09T18:17:14.992Z,24.42
2022-12-09T18:19:41.585Z,24.23
2022-12-09T18:22:08.271Z,23.73
2022-12-09T18:24:34.834Z,23.15
2022-12-09T18:27:01.399Z,21.80
2022-12-09T18:29:28.032Z,23.90
2022-12-09T18:31:56.864Z,23.52
2022-12-09T18:34:24.698Z,22.58
2022-12-09T18:36:51.538Z,21.42
2022-12-09T18:39:18.721Z,25.17
2022-12-09T18:41:48.074Z,26.65
2022-12-09T18:44:15.818Z,24.50
2022-12-09T18:46:47.757Z,22.77
2022-12-09T18:49:20.273Z,32.42
2022-12-09T18:51:47.696Z,28.90
2022-12-09T18:54:23.480Z,31.87
2022-12-09T18:56:54.071Z,26.45
2022-12-09T18:59:22.111Z,24.27
2022-12-09T19:01:49.265Z,23.52
2022-12-09T19:04:27.302Z,22.63
2022-12-09T19:06:56.682Z,23.13
2022-12-09T19:09:26.504Z,24.50
2022-12-09T19:11:53.441Z,25.08
2022-12-09T19:14:22.209Z,24.45
2022-12-09T19:16:49.518Z,23.73
2022-12-09T19:19:23.566Z,22.75
2022-12-09T19:21:51.134Z,22.40
2022-12-09T19:24:20.942Z,22.02
2022-12-09T19:26:47.511Z,19.83
2022-12-09T19:29:14.631Z,18.83
2022-12-09T19:31:44.551Z,18.80
2022-12-09T19:34:22.554Z,21.25
2022-12-09T19:36:51.036Z,17.88
2022-12-09T19:39:19.136Z,18.50
2022-12-09T19:41:46.145Z,18.55
2022-12-09T19:44:21.504Z,18.13
2022-12-09T19:46:58.014Z,19.95
2022-12-09T19:49:24.776Z,18.45
2022-12-09T19:51:52.000Z,20.38
2022-12-09T19:54:21.442Z,19.17
2022-12-09T19:56:51.802Z,19.88
2022-12-09T19:59:18.335Z,19.83
2022-12-09T20:01:45.563Z,18.98
2022-12-09T20:04:47.035Z,16.60
2022-12-09T20:07:07.476Z,16.73
2022-12-09T20:09:35.078Z,19.00
2022-12-09T20:12:01.617Z,20.15
2022-12-09T20:14:28.212Z,21.33
2022-12-09T20:16:54.747Z,25.88
2022-12-09T20:19:21.318Z,23.80
2022-12-09T20:21:48.832Z,23.98
2022-12-09T20:24:15.413Z,25.40
2022-12-09T20:26:42.051Z,22.98
2022-12-09T20:29:11.324Z,23.67
2022-12-09T20:31:38.733Z,25.67
2022-12-09T20:34:13.563Z,24.47
2022-12-09T20:36:42.156Z,25.55
2022-12-09T20:39:15.210Z,25.20
2022-12-09T20:41:42.397Z,27.05
2022-12-09T20:44:09.894Z,26.75
2022-12-09T20:46:36.713Z,23.63
2022-12-09T20:49:03.426Z,26.63
2022-12-09T20:51:35.135Z,24.63
2022-12-09T20:54:02.351Z,22.38
2022-12-09T20:56:29.967Z,22.95
2022-12-09T20:58:57.602Z,23.35
2022-12-09T21:01:31.042Z,20.45
2022-12-09T21:03:59.097Z,18.20
2022-12-09T21:06:31.596Z,17.58
2022-12-09T21:09:07.338Z,20.02
2022-12-09T21:11:33.948Z,19.77
2022-12-09T21:14:02.015Z,19.67
2022-12-09T21:16:32.035Z,21.58
2022-12-09T21:19:01.990Z,23.13
2022-12-09T21:21:33.933Z,22.67
2022-12-09T21:24:00.727Z,21.88
2022-12-09T21:26:27.510Z,20.55
2022-12-09T21:28:54.626Z,21.15
2022-12-09T21:31:26.774Z,21.42
2022-12-09T21:33:55.446Z,20.08
2022-12-09T21:36:24.926Z,22.48
2022-12-09T21:38:52.183Z,20.92
2022-12-09T21:41:21.485Z,20.15
2022-12-09T21:43:48.145Z,20.98
2022-12-09T21:46:20.351Z,20.17
2022-12-09T21:48:52.192Z,20.48
2022-12-09T21:51:19.607Z,18.58
2022-12-09T21:53:46.938Z,20.65
2022-12-09T21:56:15.800Z,19.73
2022-12-09T21:58:43.906Z,22.67
2022-12-09T22:01:17.689Z,20.20
2022-12-09T22:03:45.148Z,23.15
2022-12-09T22:06:12.360Z,22.77
2022-12-09T22:08:40.268Z,21.88
2022-12-09T22:11:14.046Z,19.92
2022-12-09T22:13:40.810Z,20.73
2022-12-09T22:16:16.493Z,19.05
2022-12-09T22:18:43.192Z,21.67
2022-12-09T22:21:28.625Z,20.83
2022-12-09T22:23:58.816Z,20.30
2022-12-09T22:26:25.877Z,20.52
2022-12-09T22:28:53.021Z,20.40
2022-12-09T22:31:22.491Z,22.13
2022-12-09T22:33:51.126Z,23.05
2022-12-09T22:36:18.414Z,24.08
2022-12-09T22:38:45.159Z,22.50
2022-12-09T22:41:14.510Z,20.40
2022-12-09T22:43:42.099Z,19.38
2022-12-09T22:46:12.273Z,19.48
2022-12-09T22:48:40.004Z,20.77
2022-12-09T22:51:20.824Z,22.45
2022-12-09T22:53:49.189Z,20.58
2022-12-09T22:58:42.463Z,19.65
2022-12-09T23:01:14.402Z,19.60
2022-12-09T23:03:41.390Z,21.55
2022-12-09T23:06:08.610Z,20.48
2022-12-09T23:08:36.118Z,21.52
2022-12-09T23:11:04.734Z,20.35
2022-12-09T23:13:34.954Z,21.67
2022-12-09T23:16:05.407Z,20.40
2022-12-09T23:18:33.651Z,20.75
2022-12-09T23:21:09.632Z,19.70
2022-12-09T23:23:36.489Z,21.15
2022-12-09T23:26:07.948Z,20.08
2022-12-09T23:28:39.062Z,19.70
2022-12-09T23:31:08.943Z,24.45
2022-12-09T23:33:36.566Z,25.27
2022-12-09T23:36:11.732Z,22.90
2022-12-09T23:38:38.325Z,22.10
2022-12-09T23:41:05.694Z,23.33
2022-12-09T23:43:33.647Z,23.40
2022-12-09T23:46:15.132Z,21.02
2022-12-09T23:48:43.864Z,22.98
2022-12-09T23:51:11.558Z,23.42
2022-12-09T23:53:39.251Z,22.98
2022-12-09T23:56:06.842Z,23.98
2022-12-09T23:58:33.998Z,22.80
